sensor_id;sensor_type;location;lat;lon;timestamp;P1;durP1;ratioP1;P2;durP2;ratioP2
53010;SDS011;42803;55.762;38.084;2024-02-21T00:01:31;12.13;;;6.05;;
53010;SDS011;42803;55.762;38.084;2024-02-21T00:04:01;9.90;;;5.10;;
53010;SDS011;42803;55.762;38.084;2024-02-21T00:06:31;14.40;;;6.40;;
53010;SDS011;42803;55.762;38.084;2024-02-21T00:09:01;12.45;;;5.88;;
53010;SDS011;42803;55.762;38.084;2024-02-21T00:11:30;13.82;;;6.18;;
53010;SDS011;42803;55.762;38.084;2024-02-21T00:13:59;15.02;;;7.18;;
53010;SDS011;42803;55.762;38.084;2024-02-21T00:16:29;14.27;;;5.38;;
53010;SDS011;42803;55.762;38.084;2024-02-21T00:18:58;11.57;;;6.07;;
53010;SDS011;42803;55.762;38.084;2024-02-21T00:21:27;14.23;;;5.82;;
53010;SDS011;42803;55.762;38.084;2024-02-21T00:23:57;12.60;;;5.28;;
53010;SDS011;42803;55.762;38.084;2024-02-21T00:26:26;11.25;;;5.47;;
53010;SDS011;42803;55.762;38.084;2024-02-21T00:28:56;10.55;;;5.25;;
53010;SDS011;42803;55.762;38.084;2024-02-21T00:31:25;10.43;;;5.05;;
53010;SDS011;42803;55.762;38.084;2024-02-21T00:33:54;9.00;;;4.93;;
53010;SDS011;42803;55.762;38.084;2024-02-21T00:36:23;9.55;;;4.85;;
53010;SDS011;42803;55.762;38.084;2024-02-21T00:38:52;10.43;;;5.00;;
53010;SDS011;42803;55.762;38.084;2024-02-21T00:41:23;11.82;;;5.40;;
53010;SDS011;42803;55.762;38.084;2024-02-21T00:43:52;11.43;;;5.03;;
53010;SDS011;42803;55.762;38.084;2024-02-21T00:46:21;11.95;;;5.93;;
53010;SDS011;42803;55.762;38.084;2024-02-21T00:48:50;12.15;;;5.22;;
53010;SDS011;42803;55.762;38.084;2024-02-21T00:51:20;12.18;;;5.68;;
53010;SDS011;42803;55.762;38.084;2024-02-21T00:53:49;11.57;;;5.43;;
53010;SDS011;42803;55.762;38.084;2024-02-21T00:56:18;11.27;;;6.07;;
53010;SDS011;42803;55.762;38.084;2024-02-21T00:58:49;12.73;;;5.60;;
53010;SDS011;42803;55.762;38.084;2024-02-21T01:01:21;10.60;;;5.20;;
53010;SDS011;42803;55.762;38.084;2024-02-21T01:03:51;9.68;;;5.68;;
53010;SDS011;42803;55.762;38.084;2024-02-21T01:06:21;11.30;;;5.55;;
53010;SDS011;42803;55.762;38.084;2024-02-21T01:08:51;9.57;;;5.18;;
53010;SDS011;42803;55.762;38.084;2024-02-21T01:11:20;11.10;;;6.32;;
53010;SDS011;42803;55.762;38.084;2024-02-21T01:13:53;12.13;;;5.25;;
53010;SDS011;42803;55.762;38.084;2024-02-21T01:16:24;11.07;;;6.05;;
53010;SDS011;42803;55.762;38.084;2024-02-21T01:18:54;10.30;;;5.32;;
53010;SDS011;42803;55.762;38.084;2024-02-21T01:21:23;10.57;;;5.63;;
53010;SDS011;42803;55.762;38.084;2024-02-21T01:23:52;10.30;;;5.20;;
53010;SDS011;42803;55.762;38.084;2024-02-21T01:26:21;13.48;;;5.50;;
53010;SDS011;42803;55.762;38.084;2024-02-21T01:28:50;10.80;;;5.28;;
53010;SDS011;42803;55.762;38.084;2024-02-21T01:31:21;13.68;;;6.30;;
53010;SDS011;42803;55.762;38.084;2024-02-21T01:33:50;12.18;;;6.07;;
53010;SDS011;42803;55.762;38.084;2024-02-21T01:36:19;12.57;;;5.78;;
53010;SDS011;42803;55.762;38.084;2024-02-21T01:38:48;12.30;;;5.80;;
53010;SDS011;42803;55.762;38.084;2024-02-21T01:41:17;10.27;;;5.68;;
53010;SDS011;42803;55.762;38.084;2024-02-21T01:43:46;9.45;;;5.50;;
53010;SDS011;42803;55.762;38.084;2024-02-21T01:46:16;11.25;;;5.88;;
53010;SDS011;42803;55.762;38.084;2024-02-21T01:48:47;9.52;;;5.25;;
53010;SDS011;42803;55.762;38.084;2024-02-21T01:51:16;9.77;;;5.18;;
53010;SDS011;42803;55.762;38.084;2024-02-21T01:53:45;11.00;;;5.47;;
53010;SDS011;42803;55.762;38.084;2024-02-21T01:56:15;9.73;;;5.63;;
53010;SDS011;42803;55.762;38.084;2024-02-21T01:58:45;11.70;;;5.63;;
53010;SDS011;42803;55.762;38.084;2024-02-21T02:01:15;12.95;;;5.68;;
53010;SDS011;42803;55.762;38.084;2024-02-21T02:03:50;12.45;;;5.93;;
53010;SDS011;42803;55.762;38.084;2024-02-21T02:06:20;13.20;;;5.53;;
53010;SDS011;42803;55.762;38.084;2024-02-21T02:08:49;11.90;;;5.28;;
53010;SDS011;42803;55.762;38.084;2024-02-21T02:11:19;13.32;;;5.75;;
53010;SDS011;42803;55.762;38.084;2024-02-21T02:13:48;14.00;;;6.13;;
53010;SDS011;42803;55.762;38.084;2024-02-21T02:16:18;10.55;;;5.60;;
53010;SDS011;42803;55.762;38.084;2024-02-21T02:18:47;13.50;;;6.30;;
53010;SDS011;42803;55.762;38.084;2024-02-21T02:21:22;10.43;;;5.22;;
53010;SDS011;42803;55.762;38.084;2024-02-21T02:23:57;12.05;;;5.68;;
53010;SDS011;42803;55.762;38.084;2024-02-21T02:26:28;13.82;;;6.93;;
53010;SDS011;42803;55.762;38.084;2024-02-21T02:28:57;12.25;;;5.32;;
53010;SDS011;42803;55.762;38.084;2024-02-21T02:31:26;10.75;;;5.68;;
53010;SDS011;42803;55.762;38.084;2024-02-21T02:33:56;12.65;;;5.47;;
53010;SDS011;42803;55.762;38.084;2024-02-21T02:36:26;12.02;;;5.50;;
53010;SDS011;42803;55.762;38.084;2024-02-21T02:38:55;11.55;;;5.97;;
53010;SDS011;42803;55.762;38.084;2024-02-21T02:41:26;10.05;;;5.32;;
53010;SDS011;42803;55.762;38.084;2024-02-21T02:43:55;10.02;;;5.03;;
53010;SDS011;42803;55.762;38.084;2024-02-21T02:46:24;10.98;;;5.53;;
53010;SDS011;42803;55.762;38.084;2024-02-21T02:48:53;10.10;;;5.35;;
53010;SDS011;42803;55.762;38.084;2024-02-21T02:51:23;10.73;;;5.38;;
53010;SDS011;42803;55.762;38.084;2024-02-21T02:53:52;11.48;;;5.57;;
53010;SDS011;42803;55.762;38.084;2024-02-21T02:56:21;11.70;;;6.63;;
53010;SDS011;42803;55.762;38.084;2024-02-21T02:58:51;10.50;;;5.20;;
53010;SDS011;42803;55.762;38.084;2024-02-21T03:01:21;10.50;;;4.88;;
53010;SDS011;42803;55.762;38.084;2024-02-21T03:03:50;8.77;;;5.63;;
53010;SDS011;42803;55.762;38.084;2024-02-21T03:06:19;16.30;;;6.32;;
53010;SDS011;42803;55.762;38.084;2024-02-21T03:08:49;13.45;;;5.57;;
53010;SDS011;42803;55.762;38.084;2024-02-21T03:11:22;15.73;;;5.60;;
53010;SDS011;42803;55.762;38.084;2024-02-21T03:13:59;9.77;;;5.28;;
53010;SDS011;42803;55.762;38.084;2024-02-21T03:16:28;11.93;;;5.55;;
53010;SDS011;42803;55.762;38.084;2024-02-21T03:18:57;11.80;;;6.13;;
53010;SDS011;42803;55.762;38.084;2024-02-21T03:21:26;12.38;;;5.70;;
53010;SDS011;42803;55.762;38.084;2024-02-21T03:23:55;12.82;;;5.53;;
53010;SDS011;42803;55.762;38.084;2024-02-21T03:26:25;12.98;;;5.63;;
53010;SDS011;42803;55.762;38.084;2024-02-21T03:28:54;11.30;;;5.82;;
53010;SDS011;42803;55.762;38.084;2024-02-21T03:31:24;11.75;;;5.93;;
53010;SDS011;42803;55.762;38.084;2024-02-21T03:36:27;12.07;;;5.72;;
53010;SDS011;42803;55.762;38.084;2024-02-21T03:38:56;13.48;;;6.18;;
53010;SDS011;42803;55.762;38.084;2024-02-21T03:41:25;13.50;;;6.18;;
53010;SDS011;42803;55.762;38.084;2024-02-21T03:43:55;11.68;;;6.40;;
53010;SDS011;42803;55.762;38.084;2024-02-21T03:46:26;14.02;;;5.70;;
53010;SDS011;42803;55.762;38.084;2024-02-21T03:48:56;14.18;;;6.28;;
53010;SDS011;42803;55.762;38.084;2024-02-21T03:51:25;9.10;;;5.13;;
53010;SDS011;42803;55.762;38.084;2024-02-21T03:53:54;10.52;;;5.78;;
53010;SDS011;42803;55.762;38.084;2024-02-21T03:56:23;16.15;;;6.57;;
53010;SDS011;42803;55.762;38.084;2024-02-21T03:58:53;11.50;;;5.65;;
53010;SDS011;42803;55.762;38.084;2024-02-21T04:01:22;13.45;;;6.07;;
53010;SDS011;42803;55.762;38.084;2024-02-21T04:03:53;10.85;;;6.35;;
53010;SDS011;42803;55.762;38.084;2024-02-21T04:06:23;15.32;;;6.75;;
53010;SDS011;42803;55.762;38.084;2024-02-21T04:08:52;14.40;;;5.60;;
53010;SDS011;42803;55.762;38.084;2024-02-21T04:11:21;12.52;;;5.68;;
53010;SDS011;42803;55.762;38.084;2024-02-21T04:13:51;12.40;;;5.22;;
53010;SDS011;42803;55.762;38.084;2024-02-21T04:16:20;11.10;;;6.07;;
53010;SDS011;42803;55.762;38.084;2024-02-21T04:18:49;14.38;;;6.53;;
53010;SDS011;42803;55.762;38.084;2024-02-21T04:21:21;10.25;;;5.82;;
53010;SDS011;42803;55.762;38.084;2024-02-21T04:23:50;13.60;;;6.35;;
53010;SDS011;42803;55.762;38.084;2024-02-21T04:26:19;12.35;;;5.95;;
53010;SDS011;42803;55.762;38.084;2024-02-21T04:28:49;13.32;;;5.97;;
53010;SDS011;42803;55.762;38.084;2024-02-21T04:31:18;13.23;;;6.65;;
53010;SDS011;42803;55.762;38.084;2024-02-21T04:33:47;11.93;;;6.07;;
53010;SDS011;42803;55.762;38.084;2024-02-21T04:36:17;14.95;;;7.15;;
53010;SDS011;42803;55.762;38.084;2024-02-21T04:38:47;12.20;;;6.15;;
53010;SDS011;42803;55.762;38.084;2024-02-21T04:41:17;14.20;;;6.97;;
53010;SDS011;42803;55.762;38.084;2024-02-21T04:43:46;12.90;;;6.22;;
53010;SDS011;42803;55.762;38.084;2024-02-21T04:46:16;14.55;;;6.28;;
53010;SDS011;42803;55.762;38.084;2024-02-21T04:48:45;14.52;;;6.55;;
53010;SDS011;42803;55.762;38.084;2024-02-21T04:51:14;12.82;;;5.95;;
53010;SDS011;42803;55.762;38.084;2024-02-21T04:53:44;16.20;;;7.13;;
53010;SDS011;42803;55.762;38.084;2024-02-21T04:56:14;11.30;;;5.72;;
53010;SDS011;42803;55.762;38.084;2024-02-21T04:58:43;14.13;;;6.57;;
53010;SDS011;42803;55.762;38.084;2024-02-21T05:01:13;15.32;;;6.68;;
53010;SDS011;42803;55.762;38.084;2024-02-21T05:03:42;12.63;;;6.13;;
53010;SDS011;42803;55.762;38.084;2024-02-21T05:06:12;11.68;;;6.40;;
53010;SDS011;42803;55.762;38.084;2024-02-21T05:08:41;11.60;;;5.72;;
53010;SDS011;42803;55.762;38.084;2024-02-21T05:11:10;15.25;;;5.93;;
53010;SDS011;42803;55.762;38.084;2024-02-21T05:13:41;13.90;;;6.40;;
53010;SDS011;42803;55.762;38.084;2024-02-21T05:16:10;13.18;;;6.85;;
53010;SDS011;42803;55.762;38.084;2024-02-21T05:18:40;16.20;;;6.38;;
53010;SDS011;42803;55.762;38.084;2024-02-21T05:21:10;16.48;;;7.50;;
53010;SDS011;42803;55.762;38.084;2024-02-21T05:23:39;16.25;;;6.93;;
53010;SDS011;42803;55.762;38.084;2024-02-21T05:26:08;13.75;;;6.55;;
53010;SDS011;42803;55.762;38.084;2024-02-21T05:28:38;14.52;;;6.32;;
53010;SDS011;42803;55.762;38.084;2024-02-21T05:31:08;12.93;;;6.32;;
53010;SDS011;42803;55.762;38.084;2024-02-21T05:33:38;13.45;;;5.95;;
53010;SDS011;42803;55.762;38.084;2024-02-21T05:36:07;14.13;;;6.80;;
53010;SDS011;42803;55.762;38.084;2024-02-21T05:38:37;16.60;;;6.53;;
53010;SDS011;42803;55.762;38.084;2024-02-21T05:41:06;14.27;;;6.30;;
53010;SDS011;42803;55.762;38.084;2024-02-21T05:43:39;15.13;;;7.03;;
53010;SDS011;42803;55.762;38.084;2024-02-21T05:46:10;17.40;;;6.90;;
53010;SDS011;42803;55.762;38.084;2024-02-21T05:48:40;15.68;;;7.30;;
53010;SDS011;42803;55.762;38.084;2024-02-21T05:51:10;14.38;;;7.57;;
53010;SDS011;42803;55.762;38.084;2024-02-21T05:53:40;16.77;;;7.40;;
53010;SDS011;42803;55.762;38.084;2024-02-21T05:56:10;17.02;;;7.15;;
53010;SDS011;42803;55.762;38.084;2024-02-21T05:58:40;14.90;;;7.03;;
53010;SDS011;42803;55.762;38.084;2024-02-21T06:01:12;13.82;;;6.72;;
53010;SDS011;42803;55.762;38.084;2024-02-21T06:03:41;18.98;;;7.15;;
53010;SDS011;42803;55.762;38.084;2024-02-21T06:06:13;12.68;;;6.07;;
53010;SDS011;42803;55.762;38.084;2024-02-21T06:08:42;11.30;;;6.85;;
53010;SDS011;42803;55.762;38.084;2024-02-21T06:11:11;13.13;;;6.57;;
53010;SDS011;42803;55.762;38.084;2024-02-21T06:13:43;11.63;;;5.97;;
53010;SDS011;42803;55.762;38.084;2024-02-21T06:16:13;13.70;;;6.28;;
53010;SDS011;42803;55.762;38.084;2024-02-21T06:18:43;13.93;;;7.03;;
53010;SDS011;42803;55.762;38.084;2024-02-21T06:21:12;13.20;;;6.93;;
53010;SDS011;42803;55.762;38.084;2024-02-21T06:23:41;14.68;;;5.93;;
53010;SDS011;42803;55.762;38.084;2024-02-21T06:26:10;13.63;;;6.18;;
53010;SDS011;42803;55.762;38.084;2024-02-21T06:28:40;17.75;;;6.95;;
53010;SDS011;42803;55.762;38.084;2024-02-21T06:31:10;14.50;;;6.43;;
53010;SDS011;42803;55.762;38.084;2024-02-21T06:33:41;16.13;;;6.47;;
53010;SDS011;42803;55.762;38.084;2024-02-21T06:36:11;16.10;;;6.72;;
53010;SDS011;42803;55.762;38.084;2024-02-21T06:38:40;13.63;;;6.70;;
53010;SDS011;42803;55.762;38.084;2024-02-21T06:41:14;13.23;;;7.15;;
53010;SDS011;42803;55.762;38.084;2024-02-21T06:43:45;16.95;;;7.18;;
53010;SDS011;42803;55.762;38.084;2024-02-21T06:46:24;11.60;;;6.20;;
53010;SDS011;42803;55.762;38.084;2024-02-21T06:48:55;13.82;;;6.60;;
53010;SDS011;42803;55.762;38.084;2024-02-21T06:51:25;9.35;;;5.30;;
53010;SDS011;42803;55.762;38.084;2024-02-21T06:53:54;12.75;;;6.35;;
53010;SDS011;42803;55.762;38.084;2024-02-21T06:56:24;12.85;;;6.07;;
53010;SDS011;42803;55.762;38.084;2024-02-21T06:58:56;11.98;;;6.53;;
53010;SDS011;42803;55.762;38.084;2024-02-21T07:01:26;11.50;;;5.57;;
53010;SDS011;42803;55.762;38.084;2024-02-21T07:03:56;11.48;;;5.85;;
53010;SDS011;42803;55.762;38.084;2024-02-21T07:06:26;12.85;;;6.22;;
53010;SDS011;42803;55.762;38.084;2024-02-21T07:08:59;11.90;;;6.22;;
53010;SDS011;42803;55.762;38.084;2024-02-21T07:11:28;11.75;;;5.85;;
53010;SDS011;42803;55.762;38.084;2024-02-21T07:13:57;12.30;;;5.70;;
53010;SDS011;42803;55.762;38.084;2024-02-21T07:16:27;13.60;;;5.75;;
53010;SDS011;42803;55.762;38.084;2024-02-21T07:18:57;16.38;;;6.68;;
53010;SDS011;42803;55.762;38.084;2024-02-21T07:21:27;13.23;;;5.95;;
53010;SDS011;42803;55.762;38.084;2024-02-21T07:23:56;14.02;;;7.13;;
53010;SDS011;42803;55.762;38.084;2024-02-21T07:26:26;15.73;;;6.45;;
53010;SDS011;42803;55.762;38.084;2024-02-21T07:28:55;10.45;;;5.50;;
53010;SDS011;42803;55.762;38.084;2024-02-21T07:31:24;15.05;;;6.78;;
53010;SDS011;42803;55.762;38.084;2024-02-21T07:33:53;11.18;;;5.85;;
53010;SDS011;42803;55.762;38.084;2024-02-21T07:36:27;13.85;;;6.50;;
53010;SDS011;42803;55.762;38.084;2024-02-21T07:38:58;13.43;;;6.32;;
53010;SDS011;42803;55.762;38.084;2024-02-21T07:41:27;14.20;;;6.47;;
53010;SDS011;42803;55.762;38.084;2024-02-21T07:43:58;13.35;;;6.25;;
53010;SDS011;42803;55.762;38.084;2024-02-21T07:46:27;13.38;;;6.07;;
53010;SDS011;42803;55.762;38.084;2024-02-21T07:48:56;12.00;;;6.50;;
53010;SDS011;42803;55.762;38.084;2024-02-21T07:51:28;13.27;;;6.05;;
53010;SDS011;42803;55.762;38.084;2024-02-21T07:53:58;10.52;;;6.55;;
53010;SDS011;42803;55.762;38.084;2024-02-21T07:56:27;11.60;;;6.10;;
53010;SDS011;42803;55.762;38.084;2024-02-21T07:58:56;17.38;;;6.82;;
53010;SDS011;42803;55.762;38.084;2024-02-21T08:01:26;12.60;;;6.07;;
53010;SDS011;42803;55.762;38.084;2024-02-21T08:03:56;16.75;;;6.68;;
53010;SDS011;42803;55.762;38.084;2024-02-21T08:06:26;10.88;;;6.30;;
53010;SDS011;42803;55.762;38.084;2024-02-21T08:08:57;12.55;;;6.30;;
53010;SDS011;42803;55.762;38.084;2024-02-21T08:11:28;14.02;;;6.00;;
53010;SDS011;42803;55.762;38.084;2024-02-21T08:13:58;13.80;;;7.05;;
53010;SDS011;42803;55.762;38.084;2024-02-21T08:16:27;15.35;;;7.00;;
53010;SDS011;42803;55.762;38.084;2024-02-21T08:18:57;14.13;;;6.60;;
53010;SDS011;42803;55.762;38.084;2024-02-21T08:21:27;9.77;;;5.65;;
53010;SDS011;42803;55.762;38.084;2024-02-21T08:23:57;12.27;;;6.30;;
53010;SDS011;42803;55.762;38.084;2024-02-21T08:26:27;10.50;;;5.88;;
53010;SDS011;42803;55.762;38.084;2024-02-21T08:28:57;14.43;;;6.90;;
53010;SDS011;42803;55.762;38.084;2024-02-21T08:31:28;14.13;;;6.00;;
53010;SDS011;42803;55.762;38.084;2024-02-21T08:33:59;12.20;;;5.72;;
53010;SDS011;42803;55.762;38.084;2024-02-21T08:36:31;12.55;;;5.88;;
53010;SDS011;42803;55.762;38.084;2024-02-21T08:39:03;17.77;;;7.30;;
53010;SDS011;42803;55.762;38.084;2024-02-21T08:41:32;16.52;;;7.07;;
53010;SDS011;42803;55.762;38.084;2024-02-21T08:44:22;13.35;;;5.80;;
53010;SDS011;42803;55.762;38.084;2024-02-21T08:46:54;11.82;;;6.45;;
53010;SDS011;42803;55.762;38.084;2024-02-21T08:49:24;10.10;;;5.43;;
53010;SDS011;42803;55.762;38.084;2024-02-21T08:52:01;14.38;;;7.00;;
53010;SDS011;42803;55.762;38.084;2024-02-21T08:54:33;13.07;;;6.70;;
53010;SDS011;42803;55.762;38.084;2024-02-21T08:57:02;11.40;;;6.25;;
53010;SDS011;42803;55.762;38.084;2024-02-21T08:59:32;12.32;;;6.28;;
53010;SDS011;42803;55.762;38.084;2024-02-21T09:02:01;12.35;;;6.28;;
53010;SDS011;42803;55.762;38.084;2024-02-21T09:04:31;15.52;;;6.65;;
53010;SDS011;42803;55.762;38.084;2024-02-21T09:07:01;11.93;;;6.18;;
53010;SDS011;42803;55.762;38.084;2024-02-21T09:09:30;12.40;;;6.63;;
53010;SDS011;42803;55.762;38.084;2024-02-21T09:12:02;12.77;;;5.95;;
53010;SDS011;42803;55.762;38.084;2024-02-21T09:14:34;13.18;;;6.22;;
53010;SDS011;42803;55.762;38.084;2024-02-21T09:17:06;11.68;;;5.93;;
53010;SDS011;42803;55.762;38.084;2024-02-21T09:19:36;12.73;;;5.93;;
53010;SDS011;42803;55.762;38.084;2024-02-21T09:22:05;12.82;;;6.00;;
53010;SDS011;42803;55.762;38.084;2024-02-21T09:24:34;12.20;;;5.80;;
53010;SDS011;42803;55.762;38.084;2024-02-21T09:27:05;12.55;;;6.22;;
53010;SDS011;42803;55.762;38.084;2024-02-21T09:29:34;12.52;;;6.50;;
53010;SDS011;42803;55.762;38.084;2024-02-21T09:32:04;12.80;;;6.45;;
53010;SDS011;42803;55.762;38.084;2024-02-21T09:34:34;14.38;;;5.97;;
53010;SDS011;42803;55.762;38.084;2024-02-21T09:37:04;12.77;;;5.95;;
53010;SDS011;42803;55.762;38.084;2024-02-21T09:39:33;12.68;;;6.10;;
53010;SDS011;42803;55.762;38.084;2024-02-21T09:42:06;12.77;;;6.28;;
53010;SDS011;42803;55.762;38.084;2024-02-21T09:44:39;12.57;;;6.55;;
53010;SDS011;42803;55.762;38.084;2024-02-21T09:47:12;13.02;;;6.10;;
53010;SDS011;42803;55.762;38.084;2024-02-21T09:49:46;12.10;;;5.85;;
53010;SDS011;42803;55.762;38.084;2024-02-21T09:52:16;9.00;;;5.50;;
53010;SDS011;42803;55.762;38.084;2024-02-21T09:54:49;10.63;;;5.68;;
53010;SDS011;42803;55.762;38.084;2024-02-21T09:57:21;11.10;;;5.97;;
53010;SDS011;42803;55.762;38.084;2024-02-21T09:59:52;13.60;;;5.72;;
53010;SDS011;42803;55.762;38.084;2024-02-21T10:02:22;12.23;;;6.20;;
53010;SDS011;42803;55.762;38.084;2024-02-21T10:04:51;10.98;;;6.05;;
53010;SDS011;42803;55.762;38.084;2024-02-21T10:07:21;12.43;;;6.15;;
53010;SDS011;42803;55.762;38.084;2024-02-21T10:10:00;12.23;;;6.18;;
53010;SDS011;42803;55.762;38.084;2024-02-21T10:12:31;13.45;;;5.75;;
53010;SDS011;42803;55.762;38.084;2024-02-21T10:15:01;13.35;;;5.93;;
53010;SDS011;42803;55.762;38.084;2024-02-21T10:17:31;9.60;;;4.78;;
53010;SDS011;42803;55.762;38.084;2024-02-21T10:20:07;14.30;;;6.57;;
53010;SDS011;42803;55.762;38.084;2024-02-21T10:22:38;10.88;;;5.32;;
53010;SDS011;42803;55.762;38.084;2024-02-21T10:25:07;10.02;;;5.70;;
53010;SDS011;42803;55.762;38.084;2024-02-21T10:27:39;10.45;;;4.95;;
53010;SDS011;42803;55.762;38.084;2024-02-21T10:30:13;10.73;;;5.93;;
53010;SDS011;42803;55.762;38.084;2024-02-21T10:32:50;10.85;;;5.70;;
53010;SDS011;42803;55.762;38.084;2024-02-21T10:35:26;12.02;;;6.38;;
53010;SDS011;42803;55.762;38.084;2024-02-21T10:37:57;13.27;;;6.40;;
53010;SDS011;42803;55.762;38.084;2024-02-21T10:40:27;12.73;;;5.93;;
53010;SDS011;42803;55.762;38.084;2024-02-21T10:43:00;9.23;;;5.72;;
53010;SDS011;42803;55.762;38.084;2024-02-21T10:45:31;10.30;;;6.10;;
53010;SDS011;42803;55.762;38.084;2024-02-21T10:48:09;9.55;;;4.78;;
53010;SDS011;42803;55.762;38.084;2024-02-21T10:50:47;10.02;;;5.35;;
53010;SDS011;42803;55.762;38.084;2024-02-21T10:53:31;11.35;;;5.72;;
53010;SDS011;42803;55.762;38.084;2024-02-21T10:56:11;11.88;;;5.55;;
53010;SDS011;42803;55.762;38.084;2024-02-21T10:58:49;10.23;;;5.75;;
53010;SDS011;42803;55.762;38.084;2024-02-21T11:01:19;8.90;;;4.70;;
53010;SDS011;42803;55.762;38.084;2024-02-21T11:03:52;10.95;;;5.25;;
53010;SDS011;42803;55.762;38.084;2024-02-21T11:06:22;12.20;;;5.90;;
53010;SDS011;42803;55.762;38.084;2024-02-21T11:09:02;8.63;;;5.32;;
53010;SDS011;42803;55.762;38.084;2024-02-21T11:11:33;11.05;;;5.60;;
53010;SDS011;42803;55.762;38.084;2024-02-21T11:14:09;10.95;;;5.65;;
53010;SDS011;42803;55.762;38.084;2024-02-21T11:16:39;9.27;;;5.53;;
53010;SDS011;42803;55.762;38.084;2024-02-21T11:19:18;9.25;;;5.45;;
53010;SDS011;42803;55.762;38.084;2024-02-21T11:21:49;10.43;;;5.03;;
53010;SDS011;42803;55.762;38.084;2024-02-21T11:24:28;10.60;;;5.22;;
53010;SDS011;42803;55.762;38.084;2024-02-21T11:27:07;10.88;;;5.30;;
53010;SDS011;42803;55.762;38.084;2024-02-21T11:29:41;11.50;;;5.38;;
53010;SDS011;42803;55.762;38.084;2024-02-21T11:32:13;10.87;;;5.17;;
53010;SDS011;42803;55.762;38.084;2024-02-21T11:34:52;11.95;;;5.38;;
53010;SDS011;42803;55.762;38.084;2024-02-21T11:37:24;13.20;;;6.10;;
53010;SDS011;42803;55.762;38.084;2024-02-21T11:39:55;12.70;;;5.50;;
53010;SDS011;42803;55.762;38.084;2024-02-21T11:42:25;10.02;;;5.47;;
53010;SDS011;42803;55.762;38.084;2024-02-21T11:44:56;10.57;;;6.07;;
53010;SDS011;42803;55.762;38.084;2024-02-21T11:47:27;10.65;;;5.15;;
53010;SDS011;42803;55.762;38.084;2024-02-21T11:49:57;10.18;;;4.80;;
53010;SDS011;42803;55.762;38.084;2024-02-21T11:52:27;8.95;;;5.35;;
53010;SDS011;42803;55.762;38.084;2024-02-21T11:54:56;9.45;;;5.30;;
53010;SDS011;42803;55.762;38.084;2024-02-21T11:57:33;10.20;;;4.95;;
53010;SDS011;42803;55.762;38.084;2024-02-21T12:00:12;10.10;;;5.25;;
53010;SDS011;42803;55.762;38.084;2024-02-21T12:02:42;10.15;;;5.15;;
53010;SDS011;42803;55.762;38.084;2024-02-21T12:05:14;10.05;;;4.78;;
53010;SDS011;42803;55.762;38.084;2024-02-21T12:07:43;12.13;;;4.80;;
53010;SDS011;42803;55.762;38.084;2024-02-21T12:10:14;9.90;;;5.40;;
53010;SDS011;42803;55.762;38.084;2024-02-21T12:12:43;14.50;;;6.55;;
53010;SDS011;42803;55.762;38.084;2024-02-21T12:15:13;9.10;;;4.95;;
53010;SDS011;42803;55.762;38.084;2024-02-21T12:17:43;12.40;;;5.10;;
53010;SDS011;42803;55.762;38.084;2024-02-21T12:20:12;13.27;;;5.25;;
53010;SDS011;42803;55.762;38.084;2024-02-21T12:22:43;10.65;;;5.30;;
53010;SDS011;42803;55.762;38.084;2024-02-21T12:25:15;9.65;;;4.80;;
53010;SDS011;42803;55.762;38.084;2024-02-21T12:27:47;14.23;;;5.47;;
53010;SDS011;42803;55.762;38.084;2024-02-21T12:30:18;15.00;;;5.70;;
53010;SDS011;42803;55.762;38.084;2024-02-21T12:32:48;11.93;;;5.30;;
53010;SDS011;42803;55.762;38.084;2024-02-21T12:35:18;13.88;;;5.68;;
53010;SDS011;42803;55.762;38.084;2024-02-21T12:38:04;8.85;;;4.50;;
53010;SDS011;42803;55.762;38.084;2024-02-21T12:40:33;14.13;;;4.78;;
53010;SDS011;42803;55.762;38.084;2024-02-21T12:43:03;9.85;;;4.60;;
53010;SDS011;42803;55.762;38.084;2024-02-21T12:45:33;10.02;;;4.68;;
53010;SDS011;42803;55.762;38.084;2024-02-21T12:48:03;10.25;;;5.10;;
53010;SDS011;42803;55.762;38.084;2024-02-21T12:50:33;8.32;;;4.75;;
53010;SDS011;42803;55.762;38.084;2024-02-21T12:53:02;8.27;;;4.80;;
53010;SDS011;42803;55.762;38.084;2024-02-21T12:55:43;10.10;;;4.93;;
53010;SDS011;42803;55.762;38.084;2024-02-21T12:58:12;12.77;;;5.07;;
53010;SDS011;42803;55.762;38.084;2024-02-21T13:00:43;13.05;;;4.82;;
53010;SDS011;42803;55.762;38.084;2024-02-21T13:03:13;8.23;;;4.45;;
53010;SDS011;42803;55.762;38.084;2024-02-21T13:05:43;10.38;;;4.80;;
53010;SDS011;42803;55.762;38.084;2024-02-21T13:08:12;8.90;;;5.18;;
53010;SDS011;42803;55.762;38.084;2024-02-21T13:10:41;13.20;;;5.80;;
53010;SDS011;42803;55.762;38.084;2024-02-21T13:13:11;8.60;;;4.88;;
53010;SDS011;42803;55.762;38.084;2024-02-21T13:15:40;9.13;;;4.82;;
53010;SDS011;42803;55.762;38.084;2024-02-21T13:18:12;11.80;;;4.70;;
53010;SDS011;42803;55.762;38.084;2024-02-21T13:20:41;11.75;;;5.05;;
53010;SDS011;42803;55.762;38.084;2024-02-21T13:23:10;8.18;;;4.20;;
53010;SDS011;42803;55.762;38.084;2024-02-21T13:25:40;9.40;;;5.07;;
53010;SDS011;42803;55.762;38.084;2024-02-21T13:28:09;9.75;;;5.10;;
53010;SDS011;42803;55.762;38.084;2024-02-21T13:30:38;10.10;;;5.10;;
53010;SDS011;42803;55.762;38.084;2024-02-21T13:33:08;9.07;;;4.55;;
53010;SDS011;42803;55.762;38.084;2024-02-21T13:35:39;10.80;;;4.60;;
53010;SDS011;42803;55.762;38.084;2024-02-21T13:38:09;9.48;;;4.45;;
53010;SDS011;42803;55.762;38.084;2024-02-21T13:40:39;8.27;;;4.47;;
53010;SDS011;42803;55.762;38.084;2024-02-21T13:43:10;8.57;;;4.68;;
53010;SDS011;42803;55.762;38.084;2024-02-21T13:45:39;8.77;;;4.85;;
53010;SDS011;42803;55.762;38.084;2024-02-21T13:48:11;9.48;;;5.38;;
53010;SDS011;42803;55.762;38.084;2024-02-21T13:50:45;8.50;;;5.03;;
53010;SDS011;42803;55.762;38.084;2024-02-21T13:53:14;12.57;;;5.53;;
53010;SDS011;42803;55.762;38.084;2024-02-21T13:55:45;12.57;;;5.13;;
53010;SDS011;42803;55.762;38.084;2024-02-21T13:58:15;9.40;;;5.30;;
53010;SDS011;42803;55.762;38.084;2024-02-21T14:00:45;9.63;;;4.97;;
53010;SDS011;42803;55.762;38.084;2024-02-21T14:03:14;9.23;;;4.90;;
53010;SDS011;42803;55.762;38.084;2024-02-21T14:05:45;11.75;;;5.57;;
53010;SDS011;42803;55.762;38.084;2024-02-21T14:08:16;9.98;;;5.07;;
53010;SDS011;42803;55.762;38.084;2024-02-21T14:10:45;11.52;;;5.30;;
53010;SDS011;42803;55.762;38.084;2024-02-21T14:13:15;7.97;;;4.43;;
53010;SDS011;42803;55.762;38.084;2024-02-21T14:15:45;9.63;;;5.03;;
53010;SDS011;42803;55.762;38.084;2024-02-21T14:28:58;6.82;;;3.63;;
53010;SDS011;42803;55.762;38.084;2024-02-21T14:31:28;11.23;;;4.90;;
53010;SDS011;42803;55.762;38.084;2024-02-21T14:34:00;6.82;;;3.80;;
53010;SDS011;42803;55.762;38.084;2024-02-21T14:36:30;7.55;;;4.55;;
53010;SDS011;42803;55.762;38.084;2024-02-21T14:39:00;12.18;;;5.05;;
53010;SDS011;42803;55.762;38.084;2024-02-21T14:41:30;10.43;;;4.93;;
53010;SDS011;42803;55.762;38.084;2024-02-21T14:44:01;10.32;;;4.90;;
53010;SDS011;42803;55.762;38.084;2024-02-21T14:46:31;10.15;;;5.13;;
53010;SDS011;42803;55.762;38.084;2024-02-21T14:49:00;10.32;;;5.03;;
53010;SDS011;42803;55.762;38.084;2024-02-21T14:51:47;9.38;;;5.15;;
53010;SDS011;42803;55.762;38.084;2024-02-21T14:54:16;10.43;;;5.28;;
53010;SDS011;42803;55.762;38.084;2024-02-21T14:56:47;10.95;;;4.78;;